CheckWX is a tool to help pilots better visualize weather data.  It is not intended as a substitute for an official pre-flight weather briefing.

17:58:03 UTC

KCQT METAR
Los Angeles / USC Campus Downtown Airport
Los Angeles, California, USA
Current

1 hour ago

KCQT 211652Z AUTO 00000KT 10SM CLR 25/16 A2993 RMK AO2 SLP131 T02500161
Observed
Jul-21 @ 16:52 UTC
Visibility
10 SM
Flight Rules
VFR
Cloud Levels
  • Clear skies
Temperature
25°C / 77°F
Dewpoint
16°C / 61°F
Humidity
57%
Altimeter
29.93" Hg
Pressure
1013.52 hPa
Previous

2 hours ago

KCQT 211552Z AUTO 00000KT 10SM CLR 23/16 A2993 RMK AO2 SLP134 T02280161
Observed
Jul-21 @ 15:52 UTC
Visibility
10 SM
Flight Rules
VFR
Cloud Levels
  • Clear skies
Temperature
23°C / 73°F
Dewpoint
16°C / 61°F
Humidity
65%
Altimeter
29.93" Hg
Pressure
1013.52 hPa
Previous

3 hours ago

KCQT 211452Z AUTO 00000KT 10SM FEW011 20/16 A2993 RMK AO2 SLP133 T02000156 53008
Observed
Jul-21 @ 14:52 UTC
Visibility
10 SM
Flight Rules
VFR
Cloud Levels
  • Few at 1,100' AGL
Temperature
20°C / 68°F
Dewpoint
16°C / 61°F
Humidity
78%
Altimeter
29.93" Hg
Pressure
1013.52 hPa